sensor_id;sensor_type;location;lat;lon;timestamp;temperature;humidity
15103;DHT22;7652;53.584;9.998;2023-06-22T00:00:09;19.70;99.90
15103;DHT22;7652;53.584;9.998;2023-06-22T00:03:33;19.70;99.90
15103;DHT22;7652;53.584;9.998;2023-06-22T00:06:55;19.70;99.90
15103;DHT22;7652;53.584;9.998;2023-06-22T00:10:17;19.70;99.90
15103;DHT22;7652;53.584;9.998;2023-06-22T00:13:38;19.60;99.90
15103;DHT22;7652;53.584;9.998;2023-06-22T00:17:00;19.60;99.90
15103;DHT22;7652;53.584;9.998;2023-06-22T00:20:23;19.60;99.90
15103;DHT22;7652;53.584;9.998;2023-06-22T00:23:48;19.50;99.90
15103;DHT22;7652;53.584;9.998;2023-06-22T00:27:09;19.50;99.90
15103;DHT22;7652;53.584;9.998;2023-06-22T00:30:31;19.50;99.90
15103;DHT22;7652;53.584;9.998;2023-06-22T00:33:53;19.40;99.90
15103;DHT22;7652;53.584;9.998;2023-06-22T00:37:17;19.40;99.90
15103;DHT22;7652;53.584;9.998;2023-06-22T00:40:38;19.40;99.90
15103;DHT22;7652;53.584;9.998;2023-06-22T00:44:00;19.40;99.90
15103;DHT22;7652;53.584;9.998;2023-06-22T00:47:21;19.50;99.90
15103;DHT22;7652;53.584;9.998;2023-06-22T00:50:43;19.50;99.90
15103;DHT22;7652;53.584;9.998;2023-06-22T00:54:06;19.50;99.90
15103;DHT22;7652;53.584;9.998;2023-06-22T00:57:28;19.50;99.90
15103;DHT22;7652;53.584;9.998;2023-06-22T01:00:50;19.50;99.90
15103;DHT22;7652;53.584;9.998;2023-06-22T01:04:12;19.50;99.90
15103;DHT22;7652;53.584;9.998;2023-06-22T01:07:36;19.50;99.90
15103;DHT22;7652;53.584;9.998;2023-06-22T01:11:07;19.40;99.90
15103;DHT22;7652;53.584;9.998;2023-06-22T01:14:34;19.50;99.90
15103;DHT22;7652;53.584;9.998;2023-06-22T01:17:59;19.50;99.90
15103;DHT22;7652;53.584;9.998;2023-06-22T01:21:24;19.50;99.90
15103;DHT22;7652;53.584;9.998;2023-06-22T01:24:55;19.50;99.90
15103;DHT22;7652;53.584;9.998;2023-06-22T01:28:33;19.50;99.90
15103;DHT22;7652;53.584;9.998;2023-06-22T01:31:57;19.60;99.90
15103;DHT22;7652;53.584;9.998;2023-06-22T01:35:20;19.60;99.90
15103;DHT22;7652;53.584;9.998;2023-06-22T01:38:43;19.50;99.90
15103;DHT22;7652;53.584;9.998;2023-06-22T01:42:06;19.40;99.90
15103;DHT22;7652;53.584;9.998;2023-06-22T01:45:29;19.40;99.90
15103;DHT22;7652;53.584;9.998;2023-06-22T01:48:51;19.40;99.90
15103;DHT22;7652;53.584;9.998;2023-06-22T01:52:12;19.30;99.90
15103;DHT22;7652;53.584;9.998;2023-06-22T01:55:34;19.30;99.90
15103;DHT22;7652;53.584;9.998;2023-06-22T02:02:40;19.30;99.90
15103;DHT22;7652;53.584;9.998;2023-06-22T02:06:06;19.30;99.90
15103;DHT22;7652;53.584;9.998;2023-06-22T02:09:30;19.30;99.90
15103;DHT22;7652;53.584;9.998;2023-06-22T02:12:54;19.30;99.90
15103;DHT22;7652;53.584;9.998;2023-06-22T02:16:16;19.30;99.90
15103;DHT22;7652;53.584;9.998;2023-06-22T02:19:41;19.20;99.90
15103;DHT22;7652;53.584;9.998;2023-06-22T02:23:03;19.10;99.90
15103;DHT22;7652;53.584;9.998;2023-06-22T02:26:25;19.10;99.90
15103;DHT22;7652;53.584;9.998;2023-06-22T02:29:46;19.10;99.90
15103;DHT22;7652;53.584;9.998;2023-06-22T02:33:07;19.10;99.90
15103;DHT22;7652;53.584;9.998;2023-06-22T02:36:30;19.10;99.90
15103;DHT22;7652;53.584;9.998;2023-06-22T02:39:53;19.00;99.90
15103;DHT22;7652;53.584;9.998;2023-06-22T02:43:15;19.00;99.90
15103;DHT22;7652;53.584;9.998;2023-06-22T02:46:36;19.00;99.90
15103;DHT22;7652;53.584;9.998;2023-06-22T02:49:58;18.90;99.90
15103;DHT22;7652;53.584;9.998;2023-06-22T02:53:20;18.90;99.90
15103;DHT22;7652;53.584;9.998;2023-06-22T02:56:43;18.90;99.90
15103;DHT22;7652;53.584;9.998;2023-06-22T03:00:06;18.90;99.90
15103;DHT22;7652;53.584;9.998;2023-06-22T03:03:37;18.80;99.90
15103;DHT22;7652;53.584;9.998;2023-06-22T03:06:59;18.80;99.90
15103;DHT22;7652;53.584;9.998;2023-06-22T03:10:22;18.80;99.90
15103;DHT22;7652;53.584;9.998;2023-06-22T03:13:44;18.80;99.90
15103;DHT22;7652;53.584;9.998;2023-06-22T03:17:06;18.80;99.90
15103;DHT22;7652;53.584;9.998;2023-06-22T03:20:28;18.70;99.90
15103;DHT22;7652;53.584;9.998;2023-06-22T03:23:53;18.70;99.90
15103;DHT22;7652;53.584;9.998;2023-06-22T03:27:16;18.70;99.90
15103;DHT22;7652;53.584;9.998;2023-06-22T03:30:38;18.80;99.90
15103;DHT22;7652;53.584;9.998;2023-06-22T03:33:59;18.80;99.90
15103;DHT22;7652;53.584;9.998;2023-06-22T03:37:21;18.70;99.90
15103;DHT22;7652;53.584;9.998;2023-06-22T03:40:42;18.70;99.90
15103;DHT22;7652;53.584;9.998;2023-06-22T03:44:05;18.70;99.90
15103;DHT22;7652;53.584;9.998;2023-06-22T03:47:27;18.70;99.90
15103;DHT22;7652;53.584;9.998;2023-06-22T03:50:48;18.70;99.90
15103;DHT22;7652;53.584;9.998;2023-06-22T03:54:09;18.70;99.90
15103;DHT22;7652;53.584;9.998;2023-06-22T03:57:31;18.70;99.90
15103;DHT22;7652;53.584;9.998;2023-06-22T04:00:54;18.70;99.90
15103;DHT22;7652;53.584;9.998;2023-06-22T04:04:15;18.60;99.90
15103;DHT22;7652;53.584;9.998;2023-06-22T04:07:37;18.70;99.90
15103;DHT22;7652;53.584;9.998;2023-06-22T04:10:59;18.80;99.90
15103;DHT22;7652;53.584;9.998;2023-06-22T04:14:21;18.90;99.90
15103;DHT22;7652;53.584;9.998;2023-06-22T04:17:43;18.90;99.90
15103;DHT22;7652;53.584;9.998;2023-06-22T04:21:05;19.00;99.90
15103;DHT22;7652;53.584;9.998;2023-06-22T04:24:26;19.00;99.90
15103;DHT22;7652;53.584;9.998;2023-06-22T04:27:48;18.90;99.90
15103;DHT22;7652;53.584;9.998;2023-06-22T04:31:09;19.00;99.90
15103;DHT22;7652;53.584;9.998;2023-06-22T04:34:32;19.10;99.90
15103;DHT22;7652;53.584;9.998;2023-06-22T04:37:57;19.10;99.90
15103;DHT22;7652;53.584;9.998;2023-06-22T04:41:19;19.20;99.90
15103;DHT22;7652;53.584;9.998;2023-06-22T04:44:44;19.20;99.90
15103;DHT22;7652;53.584;9.998;2023-06-22T04:48:05;19.20;99.90
15103;DHT22;7652;53.584;9.998;2023-06-22T04:51:30;19.30;99.90
15103;DHT22;7652;53.584;9.998;2023-06-22T04:54:51;19.30;99.90
15103;DHT22;7652;53.584;9.998;2023-06-22T04:58:16;19.40;99.90
15103;DHT22;7652;53.584;9.998;2023-06-22T05:01:40;19.40;99.90
15103;DHT22;7652;53.584;9.998;2023-06-22T05:05:01;19.40;99.90
15103;DHT22;7652;53.584;9.998;2023-06-22T05:08:28;19.50;99.90
15103;DHT22;7652;53.584;9.998;2023-06-22T05:11:50;19.60;99.90
15103;DHT22;7652;53.584;9.998;2023-06-22T05:15:11;19.70;99.90
15103;DHT22;7652;53.584;9.998;2023-06-22T05:18:33;19.70;99.90
15103;DHT22;7652;53.584;9.998;2023-06-22T05:21:55;19.60;99.90
15103;DHT22;7652;53.584;9.998;2023-06-22T05:25:18;19.80;99.90
15103;DHT22;7652;53.584;9.998;2023-06-22T05:28:40;19.80;99.90
15103;DHT22;7652;53.584;9.998;2023-06-22T05:32:01;19.90;99.90
15103;DHT22;7652;53.584;9.998;2023-06-22T05:35:23;20.00;99.90
15103;DHT22;7652;53.584;9.998;2023-06-22T05:38:44;20.10;99.90
15103;DHT22;7652;53.584;9.998;2023-06-22T05:42:07;20.10;99.90
15103;DHT22;7652;53.584;9.998;2023-06-22T05:45:30;20.30;99.90
15103;DHT22;7652;53.584;9.998;2023-06-22T05:48:52;20.50;99.90
15103;DHT22;7652;53.584;9.998;2023-06-22T05:52:13;20.70;99.90
15103;DHT22;7652;53.584;9.998;2023-06-22T05:55:34;20.80;99.90
15103;DHT22;7652;53.584;9.998;2023-06-22T05:58:57;21.10;99.90
15103;DHT22;7652;53.584;9.998;2023-06-22T06:02:19;21.50;99.90
15103;DHT22;7652;53.584;9.998;2023-06-22T06:05:41;21.70;99.90
15103;DHT22;7652;53.584;9.998;2023-06-22T06:09:03;22.00;99.90
15103;DHT22;7652;53.584;9.998;2023-06-22T06:12:25;22.30;99.90
15103;DHT22;7652;53.584;9.998;2023-06-22T06:15:47;22.50;99.90
15103;DHT22;7652;53.584;9.998;2023-06-22T06:19:11;22.50;99.90
15103;DHT22;7652;53.584;9.998;2023-06-22T06:22:32;22.60;99.90
15103;DHT22;7652;53.584;9.998;2023-06-22T06:25:54;22.60;99.90
15103;DHT22;7652;53.584;9.998;2023-06-22T06:29:15;23.20;99.90
15103;DHT22;7652;53.584;9.998;2023-06-22T06:32:39;23.60;99.90
15103;DHT22;7652;53.584;9.998;2023-06-22T06:36:01;23.80;99.90
15103;DHT22;7652;53.584;9.998;2023-06-22T06:39:23;24.10;99.90
15103;DHT22;7652;53.584;9.998;2023-06-22T06:42:47;24.10;99.90
15103;DHT22;7652;53.584;9.998;2023-06-22T06:46:08;23.90;99.90
15103;DHT22;7652;53.584;9.998;2023-06-22T06:49:33;23.70;99.90
15103;DHT22;7652;53.584;9.998;2023-06-22T06:52:54;23.80;99.90
15103;DHT22;7652;53.584;9.998;2023-06-22T06:56:16;23.90;99.90
15103;DHT22;7652;53.584;9.998;2023-06-22T06:59:39;23.90;99.90
15103;DHT22;7652;53.584;9.998;2023-06-22T07:03:03;23.90;99.90
15103;DHT22;7652;53.584;9.998;2023-06-22T07:06:27;23.70;99.90
15103;DHT22;7652;53.584;9.998;2023-06-22T07:09:52;23.40;99.90
15103;DHT22;7652;53.584;9.998;2023-06-22T07:13:14;23.40;99.90
15103;DHT22;7652;53.584;9.998;2023-06-22T07:16:35;23.30;99.90
15103;DHT22;7652;53.584;9.998;2023-06-22T07:19:56;23.40;99.90
15103;DHT22;7652;53.584;9.998;2023-06-22T07:23:19;23.50;99.90
15103;DHT22;7652;53.584;9.998;2023-06-22T07:26:40;23.40;99.90
15103;DHT22;7652;53.584;9.998;2023-06-22T07:30:06;23.60;99.90
15103;DHT22;7652;53.584;9.998;2023-06-22T07:33:28;23.50;99.90
15103;DHT22;7652;53.584;9.998;2023-06-22T07:36:50;23.60;99.90
15103;DHT22;7652;53.584;9.998;2023-06-22T07:40:13;23.50;99.90
15103;DHT22;7652;53.584;9.998;2023-06-22T07:43:34;23.40;99.90
15103;DHT22;7652;53.584;9.998;2023-06-22T07:46:57;23.40;99.90
15103;DHT22;7652;53.584;9.998;2023-06-22T07:50:18;23.60;99.90
15103;DHT22;7652;53.584;9.998;2023-06-22T07:53:40;23.90;99.90
15103;DHT22;7652;53.584;9.998;2023-06-22T07:57:04;24.20;99.90
15103;DHT22;7652;53.584;9.998;2023-06-22T08:00:26;24.60;99.90
15103;DHT22;7652;53.584;9.998;2023-06-22T08:03:48;24.70;99.90
15103;DHT22;7652;53.584;9.998;2023-06-22T08:07:09;24.60;99.90
15103;DHT22;7652;53.584;9.998;2023-06-22T08:10:31;24.50;99.90
15103;DHT22;7652;53.584;9.998;2023-06-22T08:13:53;24.60;99.90
15103;DHT22;7652;53.584;9.998;2023-06-22T08:17:16;24.60;99.90
15103;DHT22;7652;53.584;9.998;2023-06-22T08:20:37;24.60;99.90
15103;DHT22;7652;53.584;9.998;2023-06-22T08:23:58;24.60;99.90
15103;DHT22;7652;53.584;9.998;2023-06-22T08:27:20;24.60;99.90
15103;DHT22;7652;53.584;9.998;2023-06-22T08:30:46;24.50;99.90
15103;DHT22;7652;53.584;9.998;2023-06-22T08:34:07;24.70;99.90
15103;DHT22;7652;53.584;9.998;2023-06-22T08:37:28;24.70;99.90
15103;DHT22;7652;53.584;9.998;2023-06-22T08:40:52;24.90;99.90
15103;DHT22;7652;53.584;9.998;2023-06-22T08:44:13;24.90;99.90
15103;DHT22;7652;53.584;9.998;2023-06-22T08:47:36;24.90;99.90
15103;DHT22;7652;53.584;9.998;2023-06-22T08:50:57;25.10;99.90
15103;DHT22;7652;53.584;9.998;2023-06-22T08:54:19;25.10;99.90
15103;DHT22;7652;53.584;9.998;2023-06-22T08:57:40;25.20;99.90
15103;DHT22;7652;53.584;9.998;2023-06-22T09:01:03;25.40;99.90
15103;DHT22;7652;53.584;9.998;2023-06-22T09:04:26;25.50;99.90
15103;DHT22;7652;53.584;9.998;2023-06-22T09:07:48;25.50;99.90
15103;DHT22;7652;53.584;9.998;2023-06-22T09:11:10;25.50;99.90
15103;DHT22;7652;53.584;9.998;2023-06-22T09:14:31;25.50;99.90
15103;DHT22;7652;53.584;9.998;2023-06-22T09:17:53;25.60;99.90
15103;DHT22;7652;53.584;9.998;2023-06-22T09:21:17;25.60;99.90
15103;DHT22;7652;53.584;9.998;2023-06-22T09:24:38;25.50;99.90
15103;DHT22;7652;53.584;9.998;2023-06-22T09:27:59;25.40;99.90
15103;DHT22;7652;53.584;9.998;2023-06-22T09:31:21;25.50;99.90
15103;DHT22;7652;53.584;9.998;2023-06-22T09:34:45;25.60;99.90
15103;DHT22;7652;53.584;9.998;2023-06-22T09:38:08;25.70;99.90
15103;DHT22;7652;53.584;9.998;2023-06-22T09:41:29;25.90;99.90
15103;DHT22;7652;53.584;9.998;2023-06-22T09:44:51;26.00;99.90
15103;DHT22;7652;53.584;9.998;2023-06-22T09:48:13;26.10;99.90
15103;DHT22;7652;53.584;9.998;2023-06-22T09:51:34;26.10;99.90
15103;DHT22;7652;53.584;9.998;2023-06-22T09:54:57;26.10;99.90
15103;DHT22;7652;53.584;9.998;2023-06-22T09:58:18;26.10;99.90
15103;DHT22;7652;53.584;9.998;2023-06-22T10:01:40;26.10;99.90
15103;DHT22;7652;53.584;9.998;2023-06-22T10:05:01;26.10;99.90
15103;DHT22;7652;53.584;9.998;2023-06-22T10:08:23;26.10;99.90
15103;DHT22;7652;53.584;9.998;2023-06-22T10:11:46;26.20;99.90
15103;DHT22;7652;53.584;9.998;2023-06-22T10:15:08;26.30;99.90
15103;DHT22;7652;53.584;9.998;2023-06-22T10:18:30;26.50;99.90
15103;DHT22;7652;53.584;9.998;2023-06-22T10:21:52;26.50;99.90
15103;DHT22;7652;53.584;9.998;2023-06-22T10:25:14;26.50;99.90
15103;DHT22;7652;53.584;9.998;2023-06-22T10:28:37;26.60;99.90
15103;DHT22;7652;53.584;9.998;2023-06-22T10:31:58;26.60;99.90
15103;DHT22;7652;53.584;9.998;2023-06-22T10:35:19;26.80;99.90
15103;DHT22;7652;53.584;9.998;2023-06-22T10:38:41;26.70;99.90
15103;DHT22;7652;53.584;9.998;2023-06-22T10:42:03;26.80;99.90
15103;DHT22;7652;53.584;9.998;2023-06-22T10:45:26;26.80;99.90
15103;DHT22;7652;53.584;9.998;2023-06-22T10:48:49;26.80;99.90
15103;DHT22;7652;53.584;9.998;2023-06-22T10:52:11;26.90;99.90
15103;DHT22;7652;53.584;9.998;2023-06-22T10:55:33;26.90;99.90
15103;DHT22;7652;53.584;9.998;2023-06-22T10:59:15;26.90;99.90
15103;DHT22;7652;53.584;9.998;2023-06-22T11:02:39;27.00;99.90
15103;DHT22;7652;53.584;9.998;2023-06-22T11:06:00;27.20;99.90
15103;DHT22;7652;53.584;9.998;2023-06-22T11:09:22;27.30;99.90
15103;DHT22;7652;53.584;9.998;2023-06-22T11:12:47;27.30;99.90
15103;DHT22;7652;53.584;9.998;2023-06-22T11:16:09;27.30;99.90
15103;DHT22;7652;53.584;9.998;2023-06-22T11:19:32;27.40;99.90
15103;DHT22;7652;53.584;9.998;2023-06-22T11:22:54;27.60;99.90
15103;DHT22;7652;53.584;9.998;2023-06-22T11:26:15;27.70;99.90
15103;DHT22;7652;53.584;9.998;2023-06-22T11:29:37;27.80;99.90
15103;DHT22;7652;53.584;9.998;2023-06-22T11:33:00;27.90;99.90
15103;DHT22;7652;53.584;9.998;2023-06-22T11:36:23;28.00;99.90
15103;DHT22;7652;53.584;9.998;2023-06-22T11:39:44;28.00;99.90
15103;DHT22;7652;53.584;9.998;2023-06-22T11:43:18;27.80;99.90
15103;DHT22;7652;53.584;9.998;2023-06-22T11:46:40;28.10;99.90
15103;DHT22;7652;53.584;9.998;2023-06-22T11:50:01;28.30;99.90
15103;DHT22;7652;53.584;9.998;2023-06-22T11:53:25;28.50;99.90
15103;DHT22;7652;53.584;9.998;2023-06-22T11:56:47;28.40;99.90
15103;DHT22;7652;53.584;9.998;2023-06-22T12:00:10;28.30;99.90
15103;DHT22;7652;53.584;9.998;2023-06-22T12:03:36;28.10;99.90
15103;DHT22;7652;53.584;9.998;2023-06-22T12:06:58;28.00;99.90
15103;DHT22;7652;53.584;9.998;2023-06-22T12:10:21;27.90;99.90
15103;DHT22;7652;53.584;9.998;2023-06-22T12:13:43;27.90;99.90
15103;DHT22;7652;53.584;9.998;2023-06-22T12:17:04;27.80;99.90
15103;DHT22;7652;53.584;9.998;2023-06-22T12:20:26;27.70;99.90
15103;DHT22;7652;53.584;9.998;2023-06-22T12:23:48;27.70;99.90
15103;DHT22;7652;53.584;9.998;2023-06-22T12:27:11;27.60;99.90
15103;DHT22;7652;53.584;9.998;2023-06-22T12:30:32;27.60;99.90
15103;DHT22;7652;53.584;9.998;2023-06-22T12:33:54;27.60;99.90
15103;DHT22;7652;53.584;9.998;2023-06-22T12:37:15;27.90;99.90
15103;DHT22;7652;53.584;9.998;2023-06-22T12:40:37;27.90;99.90
15103;DHT22;7652;53.584;9.998;2023-06-22T12:44:00;27.90;99.90
15103;DHT22;7652;53.584;9.998;2023-06-22T12:47:21;27.70;99.90
15103;DHT22;7652;53.584;9.998;2023-06-22T12:50:43;27.70;99.90
15103;DHT22;7652;53.584;9.998;2023-06-22T12:54:04;28.10;99.90
15103;DHT22;7652;53.584;9.998;2023-06-22T12:57:26;28.60;99.90
15103;DHT22;7652;53.584;9.998;2023-06-22T13:00:49;28.80;99.90
15103;DHT22;7652;53.584;9.998;2023-06-22T13:04:11;29.10;99.90
15103;DHT22;7652;53.584;9.998;2023-06-22T13:07:34;29.30;99.90
15103;DHT22;7652;53.584;9.998;2023-06-22T13:10:56;29.40;99.90
15103;DHT22;7652;53.584;9.998;2023-06-22T13:14:17;29.30;99.90
15103;DHT22;7652;53.584;9.998;2023-06-22T13:17:40;29.50;99.90
15103;DHT22;7652;53.584;9.998;2023-06-22T13:21:01;29.60;99.90
15103;DHT22;7652;53.584;9.998;2023-06-22T13:24:23;29.50;99.90
15103;DHT22;7652;53.584;9.998;2023-06-22T13:27:45;29.40;99.90
15103;DHT22;7652;53.584;9.998;2023-06-22T13:31:06;29.20;99.90
15103;DHT22;7652;53.584;9.998;2023-06-22T13:34:32;29.00;99.90
15103;DHT22;7652;53.584;9.998;2023-06-22T13:37:53;28.80;99.90
15103;DHT22;7652;53.584;9.998;2023-06-22T13:41:14;28.60;99.90
15103;DHT22;7652;53.584;9.998;2023-06-22T13:44:36;28.30;99.90
15103;DHT22;7652;53.584;9.998;2023-06-22T13:47:57;28.20;99.90
15103;DHT22;7652;53.584;9.998;2023-06-22T13:51:19;28.10;99.90
15103;DHT22;7652;53.584;9.998;2023-06-22T13:54:41;28.10;99.90
15103;DHT22;7652;53.584;9.998;2023-06-22T13:58:02;28.00;99.90
15103;DHT22;7652;53.584;9.998;2023-06-22T14:01:23;28.00;99.90
15103;DHT22;7652;53.584;9.998;2023-06-22T14:04:45;28.10;99.90
15103;DHT22;7652;53.584;9.998;2023-06-22T14:08:09;28.10;99.90
15103;DHT22;7652;53.584;9.998;2023-06-22T14:11:50;28.20;99.90
15103;DHT22;7652;53.584;9.998;2023-06-22T14:15:11;28.20;99.90
15103;DHT22;7652;53.584;9.998;2023-06-22T14:18:33;28.10;99.90
15103;DHT22;7652;53.584;9.998;2023-06-22T14:21:54;27.90;99.90
15103;DHT22;7652;53.584;9.998;2023-06-22T14:25:18;27.80;99.90
15103;DHT22;7652;53.584;9.998;2023-06-22T14:28:39;27.60;99.90
15103;DHT22;7652;53.584;9.998;2023-06-22T14:32:01;27.40;99.90
15103;DHT22;7652;53.584;9.998;2023-06-22T14:35:22;27.30;99.90
15103;DHT22;7652;53.584;9.998;2023-06-22T14:38:44;27.40;99.90
15103;DHT22;7652;53.584;9.998;2023-06-22T14:42:08;27.30;99.90
15103;DHT22;7652;53.584;9.998;2023-06-22T14:45:30;27.30;99.90
15103;DHT22;7652;53.584;9.998;2023-06-22T14:48:51;27.10;99.90
15103;DHT22;7652;53.584;9.998;2023-06-22T14:52:12;27.10;99.90
15103;DHT22;7652;53.584;9.998;2023-06-22T14:55:34;27.00;99.90
15103;DHT22;7652;53.584;9.998;2023-06-22T14:58:57;26.90;99.90
15103;DHT22;7652;53.584;9.998;2023-06-22T15:02:18;26.80;99.90
15103;DHT22;7652;53.584;9.998;2023-06-22T15:05:40;26.80;99.90
15103;DHT22;7652;53.584;9.998;2023-06-22T15:09:02;26.80;99.90
15103;DHT22;7652;53.584;9.998;2023-06-22T15:12:23;26.80;99.90
15103;DHT22;7652;53.584;9.998;2023-06-22T15:15:46;26.70;99.90
15103;DHT22;7652;53.584;9.998;2023-06-22T15:19:08;26.70;99.90
15103;DHT22;7652;53.584;9.998;2023-06-22T15:22:29;26.70;99.90
15103;DHT22;7652;53.584;9.998;2023-06-22T15:25:51;26.60;99.90
15103;DHT22;7652;53.584;9.998;2023-06-22T15:29:13;26.50;99.90
15103;DHT22;7652;53.584;9.998;2023-06-22T15:32:36;26.30;99.90
15103;DHT22;7652;53.584;9.998;2023-06-22T15:35:58;26.30;99.90
15103;DHT22;7652;53.584;9.998;2023-06-22T15:39:24;26.30;99.90
15103;DHT22;7652;53.584;9.998;2023-06-22T15:42:49;26.20;99.90
15103;DHT22;7652;53.584;9.998;2023-06-22T15:46:13;26.20;99.90
15103;DHT22;7652;53.584;9.998;2023-06-22T15:49:37;26.20;99.90
15103;DHT22;7652;53.584;9.998;2023-06-22T15:52:59;26.20;99.90
15103;DHT22;7652;53.584;9.998;2023-06-22T15:56:20;26.10;99.90
15103;DHT22;7652;53.584;9.998;2023-06-22T15:59:44;26.20;99.90
15103;DHT22;7652;53.584;9.998;2023-06-22T16:03:05;26.10;99.90
15103;DHT22;7652;53.584;9.998;2023-06-22T16:06:28;26.00;99.90
15103;DHT22;7652;53.584;9.998;2023-06-22T16:09:50;26.00;99.90
15103;DHT22;7652;53.584;9.998;2023-06-22T16:13:11;25.90;99.90
15103;DHT22;7652;53.584;9.998;2023-06-22T16:16:32;25.90;99.90
15103;DHT22;7652;53.584;9.998;2023-06-22T16:19:54;25.80;99.90
15103;DHT22;7652;53.584;9.998;2023-06-22T16:23:19;25.80;99.90
15103;DHT22;7652;53.584;9.998;2023-06-22T16:26:43;25.70;99.90
15103;DHT22;7652;53.584;9.998;2023-06-22T16:30:07;25.70;99.90
15103;DHT22;7652;53.584;9.998;2023-06-22T16:33:29;25.60;99.90
15103;DHT22;7652;53.584;9.998;2023-06-22T16:36:50;25.60;99.90
15103;DHT22;7652;53.584;9.998;2023-06-22T16:40:14;25.50;99.90
15103;DHT22;7652;53.584;9.998;2023-06-22T16:43:40;25.50;99.90
15103;DHT22;7652;53.584;9.998;2023-06-22T16:47:02;25.50;99.90
15103;DHT22;7652;53.584;9.998;2023-06-22T16:50:25;25.50;99.90
15103;DHT22;7652;53.584;9.998;2023-06-22T16:53:53;25.40;99.90
15103;DHT22;7652;53.584;9.998;2023-06-22T16:57:16;25.40;99.90
15103;DHT22;7652;53.584;9.998;2023-06-22T17:00:39;25.30;99.90
15103;DHT22;7652;53.584;9.998;2023-06-22T17:04:04;25.30;99.90
15103;DHT22;7652;53.584;9.998;2023-06-22T17:07:28;25.30;99.90
15103;DHT22;7652;53.584;9.998;2023-06-22T17:10:52;25.30;99.90
15103;DHT22;7652;53.584;9.998;2023-06-22T17:14:15;25.20;99.90
15103;DHT22;7652;53.584;9.998;2023-06-22T17:17:38;25.10;99.90
15103;DHT22;7652;53.584;9.998;2023-06-22T17:21:00;25.00;99.90
15103;DHT22;7652;53.584;9.998;2023-06-22T17:24:24;25.00;99.90
15103;DHT22;7652;53.584;9.998;2023-06-22T17:27:47;24.80;99.90
15103;DHT22;7652;53.584;9.998;2023-06-22T17:31:10;24.80;99.90
15103;DHT22;7652;53.584;9.998;2023-06-22T17:34:32;24.70;99.90
15103;DHT22;7652;53.584;9.998;2023-06-22T17:37:55;24.60;99.90
15103;DHT22;7652;53.584;9.998;2023-06-22T17:41:16;24.50;99.90
15103;DHT22;7652;53.584;9.998;2023-06-22T17:44:38;24.40;99.90
15103;DHT22;7652;53.584;9.998;2023-06-22T17:48:07;24.40;99.90
15103;DHT22;7652;53.584;9.998;2023-06-22T17:51:30;24.30;99.90
15103;DHT22;7652;53.584;9.998;2023-06-22T17:54:52;24.20;99.90
15103;DHT22;7652;53.584;9.998;2023-06-22T17:58:16;24.20;99.90
15103;DHT22;7652;53.584;9.998;2023-06-22T18:01:38;24.10;99.90
15103;DHT22;7652;53.584;9.998;2023-06-22T18:05:04;23.90;99.90
15103;DHT22;7652;53.584;9.998;2023-06-22T18:08:27;23.90;99.90
15103;DHT22;7652;53.584;9.998;2023-06-22T18:11:50;23.80;99.90
15103;DHT22;7652;53.584;9.998;2023-06-22T18:15:12;23.80;99.90
15103;DHT22;7652;53.584;9.998;2023-06-22T18:18:35;23.80;99.90
15103;DHT22;7652;53.584;9.998;2023-06-22T18:21:58;23.70;99.90
15103;DHT22;7652;53.584;9.998;2023-06-22T18:25:20;23.60;99.90
15103;DHT22;7652;53.584;9.998;2023-06-22T18:28:43;23.60;99.90
15103;DHT22;7652;53.584;9.998;2023-06-22T18:32:06;23.60;99.90
15103;DHT22;7652;53.584;9.998;2023-06-22T18:35:27;23.50;99.90
15103;DHT22;7652;53.584;9.998;2023-06-22T18:38:51;23.50;99.90
15103;DHT22;7652;53.584;9.998;2023-06-22T18:42:16;23.40;99.90
15103;DHT22;7652;53.584;9.998;2023-06-22T18:45:38;23.30;99.90
15103;DHT22;7652;53.584;9.998;2023-06-22T18:49:14;23.30;99.90
15103;DHT22;7652;53.584;9.998;2023-06-22T18:52:35;23.30;99.90
15103;DHT22;7652;53.584;9.998;2023-06-22T18:56:13;23.30;99.90
15103;DHT22;7652;53.584;9.998;2023-06-22T18:59:48;23.30;99.90
15103;DHT22;7652;53.584;9.998;2023-06-22T19:03:28;23.30;99.90
15103;DHT22;7652;53.584;9.998;2023-06-22T19:06:54;23.30;99.90
15103;DHT22;7652;53.584;9.998;2023-06-22T19:10:22;23.30;99.90
15103;DHT22;7652;53.584;9.998;2023-06-22T19:13:48;23.20;99.90
15103;DHT22;7652;53.584;9.998;2023-06-22T19:17:12;23.20;99.90
15103;DHT22;7652;53.584;9.998;2023-06-22T19:20:40;23.10;99.90
15103;DHT22;7652;53.584;9.998;2023-06-22T19:24:01;23.10;99.90
15103;DHT22;7652;53.584;9.998;2023-06-22T19:27:29;23.00;99.90
15103;DHT22;7652;53.584;9.998;2023-06-22T19:30:53;22.90;99.90
15103;DHT22;7652;53.584;9.998;2023-06-22T19:34:15;22.90;99.90
15103;DHT22;7652;53.584;9.998;2023-06-22T19:37:36;22.90;99.90
15103;DHT22;7652;53.584;9.998;2023-06-22T19:41:00;22.90;99.90
15103;DHT22;7652;53.584;9.998;2023-06-22T19:44:22;22.90;99.90
15103;DHT22;7652;53.584;9.998;2023-06-22T19:47:44;23.00;99.90
15103;DHT22;7652;53.584;9.998;2023-06-22T19:51:07;23.00;99.90
15103;DHT22;7652;53.584;9.998;2023-06-22T19:54:29;23.00;99.90
15103;DHT22;7652;53.584;9.998;2023-06-22T19:57:51;22.90;99.90
15103;DHT22;7652;53.584;9.998;2023-06-22T20:01:13;22.90;99.90
15103;DHT22;7652;53.584;9.998;2023-06-22T20:04:36;22.90;99.90
15103;DHT22;7652;53.584;9.998;2023-06-22T20:08:02;22.80;99.90
15103;DHT22;7652;53.584;9.998;2023-06-22T20:11:25;22.70;99.90
15103;DHT22;7652;53.584;9.998;2023-06-22T20:14:50;22.70;99.90
15103;DHT22;7652;53.584;9.998;2023-06-22T20:18:12;22.60;99.90
15103;DHT22;7652;53.584;9.998;2023-06-22T20:21:36;22.60;99.90
15103;DHT22;7652;53.584;9.998;2023-06-22T20:24:57;22.60;99.90
15103;DHT22;7652;53.584;9.998;2023-06-22T20:28:19;22.40;99.90
15103;DHT22;7652;53.584;9.998;2023-06-22T20:31:41;22.30;99.90
15103;DHT22;7652;53.584;9.998;2023-06-22T20:35:03;22.10;99.90
15103;DHT22;7652;53.584;9.998;2023-06-22T20:38:26;21.90;99.90
15103;DHT22;7652;53.584;9.998;2023-06-22T20:41:48;21.70;99.90
15103;DHT22;7652;53.584;9.998;2023-06-22T20:45:10;21.70;99.90
15103;DHT22;7652;53.584;9.998;2023-06-22T20:48:32;21.40;99.90
15103;DHT22;7652;53.584;9.998;2023-06-22T20:51:59;21.20;99.90
15103;DHT22;7652;53.584;9.998;2023-06-22T20:55:27;20.90;99.90
15103;DHT22;7652;53.584;9.998;2023-06-22T20:58:50;20.50;99.90
15103;DHT22;7652;53.584;9.998;2023-06-22T21:02:11;20.20;99.90
15103;DHT22;7652;53.584;9.998;2023-06-22T21:05:32;20.00;99.90
15103;DHT22;7652;53.584;9.998;2023-06-22T21:08:54;19.50;99.90
15103;DHT22;7652;53.584;9.998;2023-06-22T21:12:17;19.20;99.90
15103;DHT22;7652;53.584;9.998;2023-06-22T21:15:39;18.80;99.90
15103;DHT22;7652;53.584;9.998;2023-06-22T21:19:00;18.40;99.90
15103;DHT22;7652;53.584;9.998;2023-06-22T21:22:22;18.20;99.90
15103;DHT22;7652;53.584;9.998;2023-06-22T21:25:44;18.10;99.90
15103;DHT22;7652;53.584;9.998;2023-06-22T21:29:08;17.80;99.90
15103;DHT22;7652;53.584;9.998;2023-06-22T21:32:30;17.70;99.90
15103;DHT22;7652;53.584;9.998;2023-06-22T21:35:52;17.60;99.90
15103;DHT22;7652;53.584;9.998;2023-06-22T21:39:14;17.60;99.90
15103;DHT22;7652;53.584;9.998;2023-06-22T21:42:35;17.50;99.90